sensor_id;sensor_type;location;lat;lon;timestamp;temperature;humidity
41720;DHT22;27405;53.316;-6.294;2022-12-29T00:01:54;7.00;99.90
41720;DHT22;27405;53.316;-6.294;2022-12-29T00:04:20;7.00;99.90
41720;DHT22;27405;53.316;-6.294;2022-12-29T00:06:46;7.00;99.90
41720;DHT22;27405;53.316;-6.294;2022-12-29T00:09:13;7.00;99.90
41720;DHT22;27405;53.316;-6.294;2022-12-29T00:11:40;7.00;99.90
41720;DHT22;27405;53.316;-6.294;2022-12-29T00:14:07;7.00;99.90
41720;DHT22;27405;53.316;-6.294;2022-12-29T00:16:51;7.00;99.90
41720;DHT22;27405;53.316;-6.294;2022-12-29T00:19:17;7.00;99.90
41720;DHT22;27405;53.316;-6.294;2022-12-29T00:22:01;7.00;99.90
41720;DHT22;27405;53.316;-6.294;2022-12-29T00:24:45;7.00;99.90
41720;DHT22;27405;53.316;-6.294;2022-12-29T00:27:20;7.00;99.90
41720;DHT22;27405;53.316;-6.294;2022-12-29T00:30:19;7.00;99.90
41720;DHT22;27405;53.316;-6.294;2022-12-29T00:33:13;7.00;99.90
41720;DHT22;27405;53.316;-6.294;2022-12-29T00:38:31;7.00;99.90
41720;DHT22;27405;53.316;-6.294;2022-12-29T00:41:16;7.00;99.90
41720;DHT22;27405;53.316;-6.294;2022-12-29T00:44:01;7.00;99.90
41720;DHT22;27405;53.316;-6.294;2022-12-29T00:46:36;7.00;99.90
41720;DHT22;27405;53.316;-6.294;2022-12-29T00:49:03;7.00;99.90
41720;DHT22;27405;53.316;-6.294;2022-12-29T00:51:48;7.00;99.90
41720;DHT22;27405;53.316;-6.294;2022-12-29T00:54:15;7.00;99.90
41720;DHT22;27405;53.316;-6.294;2022-12-29T00:56:42;7.00;99.90
41720;DHT22;27405;53.316;-6.294;2022-12-29T00:59:10;7.00;99.90
41720;DHT22;27405;53.316;-6.294;2022-12-29T01:01:36;7.10;99.90
41720;DHT22;27405;53.316;-6.294;2022-12-29T01:04:03;7.00;99.90
41720;DHT22;27405;53.316;-6.294;2022-12-29T01:06:29;7.10;99.90
41720;DHT22;27405;53.316;-6.294;2022-12-29T01:08:55;7.00;99.90
41720;DHT22;27405;53.316;-6.294;2022-12-29T01:11:39;7.10;99.90
41720;DHT22;27405;53.316;-6.294;2022-12-29T01:14:06;7.10;99.90
41720;DHT22;27405;53.316;-6.294;2022-12-29T01:16:32;7.10;99.90
41720;DHT22;27405;53.316;-6.294;2022-12-29T01:18:58;7.10;99.90
41720;DHT22;27405;53.316;-6.294;2022-12-29T01:21:25;7.10;99.90
41720;DHT22;27405;53.316;-6.294;2022-12-29T01:23:51;7.00;99.90
41720;DHT22;27405;53.316;-6.294;2022-12-29T01:26:17;7.10;99.90
41720;DHT22;27405;53.316;-6.294;2022-12-29T01:28:43;7.00;99.90
41720;DHT22;27405;53.316;-6.294;2022-12-29T01:31:10;7.00;99.90
41720;DHT22;27405;53.316;-6.294;2022-12-29T01:33:37;7.00;99.90
41720;DHT22;27405;53.316;-6.294;2022-12-29T01:36:04;7.00;99.90
41720;DHT22;27405;53.316;-6.294;2022-12-29T01:38:31;7.00;99.90
41720;DHT22;27405;53.316;-6.294;2022-12-29T01:40:56;7.00;99.90
41720;DHT22;27405;53.316;-6.294;2022-12-29T01:43:39;7.00;99.90
41720;DHT22;27405;53.316;-6.294;2022-12-29T01:46:51;7.00;99.90
41720;DHT22;27405;53.316;-6.294;2022-12-29T01:49:19;6.90;99.90
41720;DHT22;27405;53.316;-6.294;2022-12-29T01:54:21;6.90;99.90
41720;DHT22;27405;53.316;-6.294;2022-12-29T01:56:48;6.90;99.90
41720;DHT22;27405;53.316;-6.294;2022-12-29T01:59:20;6.90;99.90
41720;DHT22;27405;53.316;-6.294;2022-12-29T02:01:48;6.80;99.90
41720;DHT22;27405;53.316;-6.294;2022-12-29T02:04:14;6.90;99.90
41720;DHT22;27405;53.316;-6.294;2022-12-29T02:06:57;6.90;99.90
41720;DHT22;27405;53.316;-6.294;2022-12-29T02:09:25;6.90;99.90
41720;DHT22;27405;53.316;-6.294;2022-12-29T02:11:52;6.90;99.90
41720;DHT22;27405;53.316;-6.294;2022-12-29T02:14:17;6.90;99.90
41720;DHT22;27405;53.316;-6.294;2022-12-29T02:25:59;6.90;99.90
41720;DHT22;27405;53.316;-6.294;2022-12-29T02:31:37;6.90;99.90
41720;DHT22;27405;53.316;-6.294;2022-12-29T02:39:47;6.90;99.90
41720;DHT22;27405;53.316;-6.294;2022-12-29T02:45:27;7.00;99.90
41720;DHT22;27405;53.316;-6.294;2022-12-29T02:48:10;7.00;99.90
41720;DHT22;27405;53.316;-6.294;2022-12-29T02:50:51;7.00;99.90
41720;DHT22;27405;53.316;-6.294;2022-12-29T02:53:19;7.00;99.90
41720;DHT22;27405;53.316;-6.294;2022-12-29T02:56:06;7.00;99.90
41720;DHT22;27405;53.316;-6.294;2022-12-29T02:58:31;7.00;99.90
41720;DHT22;27405;53.316;-6.294;2022-12-29T03:07:23;7.00;99.90
41720;DHT22;27405;53.316;-6.294;2022-12-29T03:18:41;7.00;99.90
41720;DHT22;27405;53.316;-6.294;2022-12-29T03:21:23;7.00;99.90
41720;DHT22;27405;53.316;-6.294;2022-12-29T03:24:11;7.00;99.90
41720;DHT22;27405;53.316;-6.294;2022-12-29T03:26:37;7.00;99.90
41720;DHT22;27405;53.316;-6.294;2022-12-29T03:29:05;7.00;99.90
41720;DHT22;27405;53.316;-6.294;2022-12-29T03:31:34;7.00;99.90
41720;DHT22;27405;53.316;-6.294;2022-12-29T03:34:00;7.00;99.90
41720;DHT22;27405;53.316;-6.294;2022-12-29T03:36:42;7.00;99.90
41720;DHT22;27405;53.316;-6.294;2022-12-29T03:39:11;7.00;99.90
41720;DHT22;27405;53.316;-6.294;2022-12-29T03:41:42;7.00;99.90
41720;DHT22;27405;53.316;-6.294;2022-12-29T03:44:10;7.00;99.90
41720;DHT22;27405;53.316;-6.294;2022-12-29T03:46:36;7.00;99.90
41720;DHT22;27405;53.316;-6.294;2022-12-29T03:49:03;7.00;99.90
41720;DHT22;27405;53.316;-6.294;2022-12-29T03:51:29;7.00;99.90
41720;DHT22;27405;53.316;-6.294;2022-12-29T03:53:54;7.00;99.90
41720;DHT22;27405;53.316;-6.294;2022-12-29T03:56:20;6.90;99.90
41720;DHT22;27405;53.316;-6.294;2022-12-29T03:58:45;6.90;99.90
41720;DHT22;27405;53.316;-6.294;2022-12-29T04:01:11;6.90;99.90
41720;DHT22;27405;53.316;-6.294;2022-12-29T04:03:37;6.90;99.90
41720;DHT22;27405;53.316;-6.294;2022-12-29T04:06:03;7.00;99.90
41720;DHT22;27405;53.316;-6.294;2022-12-29T04:08:29;6.90;99.90
41720;DHT22;27405;53.316;-6.294;2022-12-29T04:10:55;6.90;99.90
41720;DHT22;27405;53.316;-6.294;2022-12-29T04:13:20;6.90;99.90
41720;DHT22;27405;53.316;-6.294;2022-12-29T04:15:46;6.90;99.90
41720;DHT22;27405;53.316;-6.294;2022-12-29T04:18:12;6.90;99.90
41720;DHT22;27405;53.316;-6.294;2022-12-29T04:20:39;6.90;99.90
41720;DHT22;27405;53.316;-6.294;2022-12-29T04:23:23;6.90;99.90
41720;DHT22;27405;53.316;-6.294;2022-12-29T04:25:49;6.90;99.90
41720;DHT22;27405;53.316;-6.294;2022-12-29T04:28:15;6.90;99.90
41720;DHT22;27405;53.316;-6.294;2022-12-29T04:30:43;6.90;99.90
41720;DHT22;27405;53.316;-6.294;2022-12-29T04:33:08;6.90;99.90
41720;DHT22;27405;53.316;-6.294;2022-12-29T04:35:34;6.90;99.90
41720;DHT22;27405;53.316;-6.294;2022-12-29T04:38:01;6.90;99.90
41720;DHT22;27405;53.316;-6.294;2022-12-29T04:40:26;6.90;99.90
41720;DHT22;27405;53.316;-6.294;2022-12-29T04:42:52;6.90;99.90
41720;DHT22;27405;53.316;-6.294;2022-12-29T04:45:18;6.90;99.90
41720;DHT22;27405;53.316;-6.294;2022-12-29T04:47:46;6.90;99.90
41720;DHT22;27405;53.316;-6.294;2022-12-29T04:50:11;6.90;99.90
41720;DHT22;27405;53.316;-6.294;2022-12-29T04:52:37;6.90;99.90
41720;DHT22;27405;53.316;-6.294;2022-12-29T04:55:04;6.90;99.90
41720;DHT22;27405;53.316;-6.294;2022-12-29T04:57:32;6.90;99.90
41720;DHT22;27405;53.316;-6.294;2022-12-29T04:59:59;6.90;99.90
41720;DHT22;27405;53.316;-6.294;2022-12-29T05:02:24;6.90;99.90
41720;DHT22;27405;53.316;-6.294;2022-12-29T05:04:50;6.80;99.90
41720;DHT22;27405;53.316;-6.294;2022-12-29T05:07:16;6.90;99.90
41720;DHT22;27405;53.316;-6.294;2022-12-29T05:09:41;6.90;99.90
41720;DHT22;27405;53.316;-6.294;2022-12-29T05:12:08;6.90;99.90
41720;DHT22;27405;53.316;-6.294;2022-12-29T05:14:34;6.90;99.90
41720;DHT22;27405;53.316;-6.294;2022-12-29T05:17:00;6.90;99.90
41720;DHT22;27405;53.316;-6.294;2022-12-29T05:19:26;6.80;99.90
41720;DHT22;27405;53.316;-6.294;2022-12-29T05:21:58;6.80;99.90
41720;DHT22;27405;53.316;-6.294;2022-12-29T05:24:24;6.70;99.90
41720;DHT22;27405;53.316;-6.294;2022-12-29T05:26:50;6.70;99.90
41720;DHT22;27405;53.316;-6.294;2022-12-29T05:29:16;6.70;99.90
41720;DHT22;27405;53.316;-6.294;2022-12-29T05:31:42;6.60;99.90
41720;DHT22;27405;53.316;-6.294;2022-12-29T05:34:10;6.60;99.90
41720;DHT22;27405;53.316;-6.294;2022-12-29T05:36:36;6.60;99.90
41720;DHT22;27405;53.316;-6.294;2022-12-29T05:39:02;6.50;99.90
41720;DHT22;27405;53.316;-6.294;2022-12-29T05:41:28;6.50;99.90
41720;DHT22;27405;53.316;-6.294;2022-12-29T05:43:55;6.50;99.90
41720;DHT22;27405;53.316;-6.294;2022-12-29T05:46:20;6.50;99.90
41720;DHT22;27405;53.316;-6.294;2022-12-29T05:48:46;6.50;99.90
41720;DHT22;27405;53.316;-6.294;2022-12-29T05:51:12;6.50;99.90
41720;DHT22;27405;53.316;-6.294;2022-12-29T05:53:37;6.50;99.90
41720;DHT22;27405;53.316;-6.294;2022-12-29T05:56:03;6.60;99.90
41720;DHT22;27405;53.316;-6.294;2022-12-29T05:58:29;6.70;99.90
41720;DHT22;27405;53.316;-6.294;2022-12-29T06:00:55;6.70;99.90
41720;DHT22;27405;53.316;-6.294;2022-12-29T06:03:20;6.70;99.90
41720;DHT22;27405;53.316;-6.294;2022-12-29T06:05:46;6.70;99.90
41720;DHT22;27405;53.316;-6.294;2022-12-29T06:08:12;6.70;99.90
41720;DHT22;27405;53.316;-6.294;2022-12-29T06:10:38;6.60;99.90
41720;DHT22;27405;53.316;-6.294;2022-12-29T06:13:04;6.60;99.90
41720;DHT22;27405;53.316;-6.294;2022-12-29T06:15:31;6.70;99.90
41720;DHT22;27405;53.316;-6.294;2022-12-29T06:17:57;6.70;99.90
41720;DHT22;27405;53.316;-6.294;2022-12-29T06:20:24;6.70;99.90
41720;DHT22;27405;53.316;-6.294;2022-12-29T06:22:49;6.70;99.90
41720;DHT22;27405;53.316;-6.294;2022-12-29T06:25:15;6.70;99.90
41720;DHT22;27405;53.316;-6.294;2022-12-29T06:27:44;6.60;99.90
41720;DHT22;27405;53.316;-6.294;2022-12-29T06:30:11;6.60;99.90
41720;DHT22;27405;53.316;-6.294;2022-12-29T06:32:37;6.60;99.90
41720;DHT22;27405;53.316;-6.294;2022-12-29T06:35:04;6.60;99.90
41720;DHT22;27405;53.316;-6.294;2022-12-29T06:37:31;6.60;99.90
41720;DHT22;27405;53.316;-6.294;2022-12-29T06:39:56;6.60;99.90
41720;DHT22;27405;53.316;-6.294;2022-12-29T06:42:22;6.50;99.90
41720;DHT22;27405;53.316;-6.294;2022-12-29T06:44:48;6.50;99.90
41720;DHT22;27405;53.316;-6.294;2022-12-29T06:47:13;6.50;99.90
41720;DHT22;27405;53.316;-6.294;2022-12-29T06:49:39;6.50;99.90
41720;DHT22;27405;53.316;-6.294;2022-12-29T06:52:05;6.50;99.90
41720;DHT22;27405;53.316;-6.294;2022-12-29T06:54:33;6.50;99.90
41720;DHT22;27405;53.316;-6.294;2022-12-29T06:56:59;6.50;99.90
41720;DHT22;27405;53.316;-6.294;2022-12-29T06:59:25;6.50;99.90
41720;DHT22;27405;53.316;-6.294;2022-12-29T07:01:51;6.50;99.90
41720;DHT22;27405;53.316;-6.294;2022-12-29T07:04:18;6.50;99.90
41720;DHT22;27405;53.316;-6.294;2022-12-29T07:06:45;6.50;99.90
41720;DHT22;27405;53.316;-6.294;2022-12-29T07:09:10;6.50;99.90
41720;DHT22;27405;53.316;-6.294;2022-12-29T07:11:37;6.50;99.90
41720;DHT22;27405;53.316;-6.294;2022-12-29T07:14:03;6.50;99.90
41720;DHT22;27405;53.316;-6.294;2022-12-29T07:16:29;6.50;99.90
41720;DHT22;27405;53.316;-6.294;2022-12-29T07:18:56;6.50;99.90
41720;DHT22;27405;53.316;-6.294;2022-12-29T07:21:22;6.40;99.90
41720;DHT22;27405;53.316;-6.294;2022-12-29T07:23:50;6.40;99.90
41720;DHT22;27405;53.316;-6.294;2022-12-29T07:26:15;6.40;99.90
41720;DHT22;27405;53.316;-6.294;2022-12-29T07:28:43;6.40;99.90
41720;DHT22;27405;53.316;-6.294;2022-12-29T07:31:20;6.40;99.90
41720;DHT22;27405;53.316;-6.294;2022-12-29T07:33:48;6.40;99.90
41720;DHT22;27405;53.316;-6.294;2022-12-29T07:36:15;6.30;99.90
41720;DHT22;27405;53.316;-6.294;2022-12-29T07:38:42;6.30;99.90
41720;DHT22;27405;53.316;-6.294;2022-12-29T07:41:09;6.30;99.90
41720;DHT22;27405;53.316;-6.294;2022-12-29T07:43:35;6.20;99.90
41720;DHT22;27405;53.316;-6.294;2022-12-29T07:46:01;6.20;99.90
41720;DHT22;27405;53.316;-6.294;2022-12-29T07:48:27;6.20;99.90
41720;DHT22;27405;53.316;-6.294;2022-12-29T07:50:53;6.20;99.90
41720;DHT22;27405;53.316;-6.294;2022-12-29T07:53:19;6.30;99.90
41720;DHT22;27405;53.316;-6.294;2022-12-29T07:55:45;6.30;99.90
41720;DHT22;27405;53.316;-6.294;2022-12-29T07:58:10;6.30;99.90
41720;DHT22;27405;53.316;-6.294;2022-12-29T08:00:37;6.40;99.90
41720;DHT22;27405;53.316;-6.294;2022-12-29T08:03:04;6.40;99.90
41720;DHT22;27405;53.316;-6.294;2022-12-29T08:05:31;6.30;99.90
41720;DHT22;27405;53.316;-6.294;2022-12-29T08:07:59;6.40;99.90
41720;DHT22;27405;53.316;-6.294;2022-12-29T08:10:25;6.30;99.90
41720;DHT22;27405;53.316;-6.294;2022-12-29T08:12:51;6.30;99.90
41720;DHT22;27405;53.316;-6.294;2022-12-29T08:15:17;6.30;99.90
41720;DHT22;27405;53.316;-6.294;2022-12-29T08:17:42;6.30;99.90
41720;DHT22;27405;53.316;-6.294;2022-12-29T08:20:08;6.30;99.90
41720;DHT22;27405;53.316;-6.294;2022-12-29T08:22:34;6.30;99.90
41720;DHT22;27405;53.316;-6.294;2022-12-29T08:25:00;6.20;99.90
41720;DHT22;27405;53.316;-6.294;2022-12-29T08:27:26;6.20;99.90
41720;DHT22;27405;53.316;-6.294;2022-12-29T08:29:52;6.20;99.90
41720;DHT22;27405;53.316;-6.294;2022-12-29T08:32:18;6.20;99.90
41720;DHT22;27405;53.316;-6.294;2022-12-29T08:34:44;6.20;99.90
41720;DHT22;27405;53.316;-6.294;2022-12-29T08:37:09;6.20;99.90
41720;DHT22;27405;53.316;-6.294;2022-12-29T08:39:35;6.20;99.90
41720;DHT22;27405;53.316;-6.294;2022-12-29T08:42:01;6.20;99.90
41720;DHT22;27405;53.316;-6.294;2022-12-29T08:44:26;6.20;99.90
41720;DHT22;27405;53.316;-6.294;2022-12-29T08:46:52;6.20;99.90
41720;DHT22;27405;53.316;-6.294;2022-12-29T08:49:18;6.10;99.90
41720;DHT22;27405;53.316;-6.294;2022-12-29T08:51:43;6.10;99.90
41720;DHT22;27405;53.316;-6.294;2022-12-29T08:54:09;6.10;99.90
41720;DHT22;27405;53.316;-6.294;2022-12-29T08:56:35;6.00;99.90
41720;DHT22;27405;53.316;-6.294;2022-12-29T08:59:00;6.00;99.90
41720;DHT22;27405;53.316;-6.294;2022-12-29T09:01:26;6.00;99.90
41720;DHT22;27405;53.316;-6.294;2022-12-29T09:03:53;6.00;99.90
41720;DHT22;27405;53.316;-6.294;2022-12-29T09:06:19;6.00;99.90
41720;DHT22;27405;53.316;-6.294;2022-12-29T09:08:47;6.00;99.90
41720;DHT22;27405;53.316;-6.294;2022-12-29T09:11:19;5.90;99.90
41720;DHT22;27405;53.316;-6.294;2022-12-29T09:13:45;5.90;99.90
41720;DHT22;27405;53.316;-6.294;2022-12-29T09:16:12;5.90;99.90
41720;DHT22;27405;53.316;-6.294;2022-12-29T09:18:38;5.90;99.90
41720;DHT22;27405;53.316;-6.294;2022-12-29T09:21:06;5.90;99.90
41720;DHT22;27405;53.316;-6.294;2022-12-29T09:23:33;5.90;99.90
41720;DHT22;27405;53.316;-6.294;2022-12-29T09:25:59;5.90;99.90
41720;DHT22;27405;53.316;-6.294;2022-12-29T09:28:25;5.90;99.90
41720;DHT22;27405;53.316;-6.294;2022-12-29T09:30:51;5.90;99.90
41720;DHT22;27405;53.316;-6.294;2022-12-29T09:33:17;5.90;99.90
41720;DHT22;27405;53.316;-6.294;2022-12-29T09:35:49;5.90;99.90
41720;DHT22;27405;53.316;-6.294;2022-12-29T09:38:15;5.90;99.90
41720;DHT22;27405;53.316;-6.294;2022-12-29T09:40:44;6.00;99.90
41720;DHT22;27405;53.316;-6.294;2022-12-29T09:46:28;6.00;99.90
41720;DHT22;27405;53.316;-6.294;2022-12-29T09:49:23;6.00;99.90
41720;DHT22;27405;53.316;-6.294;2022-12-29T09:51:55;6.00;99.90
41720;DHT22;27405;53.316;-6.294;2022-12-29T09:57:03;6.00;99.90
41720;DHT22;27405;53.316;-6.294;2022-12-29T09:59:40;6.00;99.90
41720;DHT22;27405;53.316;-6.294;2022-12-29T10:02:43;6.00;99.90
41720;DHT22;27405;53.316;-6.294;2022-12-29T10:08:24;6.10;99.90
41720;DHT22;27405;53.316;-6.294;2022-12-29T10:10:58;6.20;99.90
41720;DHT22;27405;53.316;-6.294;2022-12-29T10:16:09;6.20;99.90
41720;DHT22;27405;53.316;-6.294;2022-12-29T10:24:39;6.20;99.90
41720;DHT22;27405;53.316;-6.294;2022-12-29T10:27:10;6.30;99.90
41720;DHT22;27405;53.316;-6.294;2022-12-29T10:29:43;6.40;99.90
41720;DHT22;27405;53.316;-6.294;2022-12-29T10:33:01;6.40;99.90
41720;DHT22;27405;53.316;-6.294;2022-12-29T10:35:23;6.50;99.90
41720;DHT22;27405;53.316;-6.294;2022-12-29T10:40:19;6.50;99.90
41720;DHT22;27405;53.316;-6.294;2022-12-29T10:42:50;6.60;99.90
41720;DHT22;27405;53.316;-6.294;2022-12-29T10:45:18;6.60;99.90
41720;DHT22;27405;53.316;-6.294;2022-12-29T10:48:09;6.60;99.90
41720;DHT22;27405;53.316;-6.294;2022-12-29T10:50:38;6.50;99.90
41720;DHT22;27405;53.316;-6.294;2022-12-29T10:53:15;6.60;99.90
41720;DHT22;27405;53.316;-6.294;2022-12-29T10:55:44;6.50;99.90
41720;DHT22;27405;53.316;-6.294;2022-12-29T10:58:12;6.30;99.90
41720;DHT22;27405;53.316;-6.294;2022-12-29T11:00:39;6.10;99.90
41720;DHT22;27405;53.316;-6.294;2022-12-29T11:08:26;5.90;99.90
41720;DHT22;27405;53.316;-6.294;2022-12-29T11:11:07;5.80;99.90
41720;DHT22;27405;53.316;-6.294;2022-12-29T11:13:46;5.90;99.90
41720;DHT22;27405;53.316;-6.294;2022-12-29T11:16:12;5.90;99.90
41720;DHT22;27405;53.316;-6.294;2022-12-29T11:18:39;5.90;99.90
41720;DHT22;27405;53.316;-6.294;2022-12-29T11:21:31;5.90;99.90
41720;DHT22;27405;53.316;-6.294;2022-12-29T11:24:02;5.90;99.90
41720;DHT22;27405;53.316;-6.294;2022-12-29T11:26:30;5.90;99.90
41720;DHT22;27405;53.316;-6.294;2022-12-29T11:34:24;5.80;99.90
41720;DHT22;27405;53.316;-6.294;2022-12-29T11:37:38;5.80;99.90
41720;DHT22;27405;53.316;-6.294;2022-12-29T11:40:09;5.80;99.90
41720;DHT22;27405;53.316;-6.294;2022-12-29T11:42:56;5.80;99.90
41720;DHT22;27405;53.316;-6.294;2022-12-29T11:45:27;5.80;99.90
41720;DHT22;27405;53.316;-6.294;2022-12-29T11:50:37;5.80;99.90
41720;DHT22;27405;53.316;-6.294;2022-12-29T11:53:26;5.80;99.90
41720;DHT22;27405;53.316;-6.294;2022-12-29T11:55:55;5.80;99.90
41720;DHT22;27405;53.316;-6.294;2022-12-29T11:58:35;5.80;99.90
41720;DHT22;27405;53.316;-6.294;2022-12-29T12:04:16;5.90;99.90
41720;DHT22;27405;53.316;-6.294;2022-12-29T12:07:02;5.90;99.90
41720;DHT22;27405;53.316;-6.294;2022-12-29T12:09:33;6.00;99.90
41720;DHT22;27405;53.316;-6.294;2022-12-29T12:12:01;6.00;99.90
41720;DHT22;27405;53.316;-6.294;2022-12-29T12:14:38;6.10;99.90
41720;DHT22;27405;53.316;-6.294;2022-12-29T12:17:11;6.10;99.90
41720;DHT22;27405;53.316;-6.294;2022-12-29T12:19:48;6.10;99.90
41720;DHT22;27405;53.316;-6.294;2022-12-29T12:25:24;6.20;99.90
41720;DHT22;27405;53.316;-6.294;2022-12-29T12:28:11;6.20;99.90
41720;DHT22;27405;53.316;-6.294;2022-12-29T12:30:45;6.30;99.90
41720;DHT22;27405;53.316;-6.294;2022-12-29T12:36:10;6.40;99.90
41720;DHT22;27405;53.316;-6.294;2022-12-29T12:44:12;6.60;99.90
41720;DHT22;27405;53.316;-6.294;2022-12-29T12:52:01;6.80;99.90
41720;DHT22;27405;53.316;-6.294;2022-12-29T12:58:00;7.00;99.90
41720;DHT22;27405;53.316;-6.294;2022-12-29T13:00:34;7.00;99.90
41720;DHT22;27405;53.316;-6.294;2022-12-29T13:03:13;7.00;99.90
41720;DHT22;27405;53.316;-6.294;2022-12-29T13:14:42;6.80;99.90
41720;DHT22;27405;53.316;-6.294;2022-12-29T13:21:00;6.80;99.90
41720;DHT22;27405;53.316;-6.294;2022-12-29T13:26:33;6.90;99.90
41720;DHT22;27405;53.316;-6.294;2022-12-29T13:29:17;6.90;99.90
41720;DHT22;27405;53.316;-6.294;2022-12-29T13:34:36;6.90;99.90
41720;DHT22;27405;53.316;-6.294;2022-12-29T13:37:12;6.90;99.90
41720;DHT22;27405;53.316;-6.294;2022-12-29T13:39:43;7.00;99.90
41720;DHT22;27405;53.316;-6.294;2022-12-29T13:42:11;7.00;99.90
41720;DHT22;27405;53.316;-6.294;2022-12-29T13:45:17;6.90;99.90
41720;DHT22;27405;53.316;-6.294;2022-12-29T13:48:06;6.90;99.90
41720;DHT22;27405;53.316;-6.294;2022-12-29T13:50:38;6.90;99.90
41720;DHT22;27405;53.316;-6.294;2022-12-29T13:53:27;6.80;99.90
41720;DHT22;27405;53.316;-6.294;2022-12-29T13:56:16;6.80;99.90
41720;DHT22;27405;53.316;-6.294;2022-12-29T14:01:43;6.70;99.90
41720;DHT22;27405;53.316;-6.294;2022-12-29T14:04:21;6.60;99.90
41720;DHT22;27405;53.316;-6.294;2022-12-29T14:06:58;6.70;99.90
41720;DHT22;27405;53.316;-6.294;2022-12-29T14:09:56;6.60;99.90
41720;DHT22;27405;53.316;-6.294;2022-12-29T14:12:32;6.60;99.90
41720;DHT22;27405;53.316;-6.294;2022-12-29T14:17:34;6.60;99.90
41720;DHT22;27405;53.316;-6.294;2022-12-29T14:20:01;6.60;99.90
41720;DHT22;27405;53.316;-6.294;2022-12-29T14:22:28;6.60;99.90
41720;DHT22;27405;53.316;-6.294;2022-12-29T14:24:54;6.50;99.90
41720;DHT22;27405;53.316;-6.294;2022-12-29T14:29:47;6.50;99.90
41720;DHT22;27405;53.316;-6.294;2022-12-29T14:37:31;6.50;99.90
41720;DHT22;27405;53.316;-6.294;2022-12-29T14:40:21;6.60;99.90
41720;DHT22;27405;53.316;-6.294;2022-12-29T14:42:50;6.50;99.90
41720;DHT22;27405;53.316;-6.294;2022-12-29T14:47:52;6.60;99.90
41720;DHT22;27405;53.316;-6.294;2022-12-29T14:53:01;6.50;99.90
41720;DHT22;27405;53.316;-6.294;2022-12-29T14:58:04;6.60;99.90
41720;DHT22;27405;53.316;-6.294;2022-12-29T15:00:34;6.60;99.90
41720;DHT22;27405;53.316;-6.294;2022-12-29T15:03:07;6.60;99.90
41720;DHT22;27405;53.316;-6.294;2022-12-29T15:05:50;6.60;99.90
41720;DHT22;27405;53.316;-6.294;2022-12-29T15:08:19;6.50;99.90
41720;DHT22;27405;53.316;-6.294;2022-12-29T15:13:25;6.50;99.90
41720;DHT22;27405;53.316;-6.294;2022-12-29T15:15:57;6.40;99.90
41720;DHT22;27405;53.316;-6.294;2022-12-29T15:18:26;6.50;99.90
41720;DHT22;27405;53.316;-6.294;2022-12-29T15:20:57;6.40;99.90
41720;DHT22;27405;53.316;-6.294;2022-12-29T15:23:23;6.50;99.90
41720;DHT22;27405;53.316;-6.294;2022-12-29T15:25:57;6.50;99.90
41720;DHT22;27405;53.316;-6.294;2022-12-29T15:28:24;6.40;99.90
41720;DHT22;27405;53.316;-6.294;2022-12-29T15:30:55;6.40;99.90
41720;DHT22;27405;53.316;-6.294;2022-12-29T15:33:24;6.30;99.90
41720;DHT22;27405;53.316;-6.294;2022-12-29T15:35:52;6.30;99.90
41720;DHT22;27405;53.316;-6.294;2022-12-29T15:38:25;6.30;99.90
41720;DHT22;27405;53.316;-6.294;2022-12-29T15:40:55;6.30;99.90
41720;DHT22;27405;53.316;-6.294;2022-12-29T15:46:20;6.20;99.90
41720;DHT22;27405;53.316;-6.294;2022-12-29T15:48:45;6.10;99.90
41720;DHT22;27405;53.316;-6.294;2022-12-29T15:51:23;6.10;99.90
41720;DHT22;27405;53.316;-6.294;2022-12-29T15:53:52;6.00;99.90
41720;DHT22;27405;53.316;-6.294;2022-12-29T15:56:18;6.00;99.90
41720;DHT22;27405;53.316;-6.294;2022-12-29T15:58:47;6.00;99.90
41720;DHT22;27405;53.316;-6.294;2022-12-29T16:01:26;6.00;99.90
41720;DHT22;27405;53.316;-6.294;2022-12-29T16:03:52;6.00;99.90
41720;DHT22;27405;53.316;-6.294;2022-12-29T16:06:34;6.00;99.90
41720;DHT22;27405;53.316;-6.294;2022-12-29T16:09:03;6.00;99.90
41720;DHT22;27405;53.316;-6.294;2022-12-29T16:11:41;6.00;99.90
41720;DHT22;27405;53.316;-6.294;2022-12-29T16:14:19;6.00;99.90
41720;DHT22;27405;53.316;-6.294;2022-12-29T16:16:47;6.00;99.90
41720;DHT22;27405;53.316;-6.294;2022-12-29T16:19:36;6.00;99.90
41720;DHT22;27405;53.316;-6.294;2022-12-29T16:22:10;6.00;99.90
41720;DHT22;27405;53.316;-6.294;2022-12-29T16:24:38;6.00;99.90
41720;DHT22;27405;53.316;-6.294;2022-12-29T16:27:15;6.00;99.90
41720;DHT22;27405;53.316;-6.294;2022-12-29T16:29:44;6.00;99.90
41720;DHT22;27405;53.316;-6.294;2022-12-29T16:32:44;6.00;99.90
41720;DHT22;27405;53.316;-6.294;2022-12-29T16:37:43;5.90;99.90
41720;DHT22;27405;53.316;-6.294;2022-12-29T16:40:29;5.90;99.90
41720;DHT22;27405;53.316;-6.294;2022-12-29T16:43:00;5.90;99.90
41720;DHT22;27405;53.316;-6.294;2022-12-29T16:50:41;5.90;99.90
41720;DHT22;27405;53.316;-6.294;2022-12-29T16:53:23;5.90;99.90
41720;DHT22;27405;53.316;-6.294;2022-12-29T16:55:53;5.90;99.90
41720;DHT22;27405;53.316;-6.294;2022-12-29T16:58:27;5.90;99.90
41720;DHT22;27405;53.316;-6.294;2022-12-29T17:00:58;5.80;99.90
41720;DHT22;27405;53.316;-6.294;2022-12-29T17:03:39;5.90;99.90
41720;DHT22;27405;53.316;-6.294;2022-12-29T17:06:08;5.80;99.90
41720;DHT22;27405;53.316;-6.294;2022-12-29T17:08:43;5.80;99.90
41720;DHT22;27405;53.316;-6.294;2022-12-29T17:11:24;5.80;99.90
41720;DHT22;27405;53.316;-6.294;2022-12-29T17:16:46;5.80;99.90
41720;DHT22;27405;53.316;-6.294;2022-12-29T17:19:19;5.80;99.90
41720;DHT22;27405;53.316;-6.294;2022-12-29T17:21:48;5.80;99.90
41720;DHT22;27405;53.316;-6.294;2022-12-29T17:24:17;5.80;99.90
41720;DHT22;27405;53.316;-6.294;2022-12-29T17:26:52;5.80;99.90
41720;DHT22;27405;53.316;-6.294;2022-12-29T17:31:54;5.70;99.90
41720;DHT22;27405;53.316;-6.294;2022-12-29T17:34:20;5.70;99.90
41720;DHT22;27405;53.316;-6.294;2022-12-29T17:36:47;5.70;99.90
41720;DHT22;27405;53.316;-6.294;2022-12-29T17:39:14;5.70;99.90
41720;DHT22;27405;53.316;-6.294;2022-12-29T17:41:40;5.70;99.90
41720;DHT22;27405;53.316;-6.294;2022-12-29T17:44:15;5.70;99.90
41720;DHT22;27405;53.316;-6.294;2022-12-29T17:46:41;5.70;99.90
41720;DHT22;27405;53.316;-6.294;2022-12-29T17:49:15;5.70;99.90
41720;DHT22;27405;53.316;-6.294;2022-12-29T17:51:43;5.70;99.90
41720;DHT22;27405;53.316;-6.294;2022-12-29T17:54:23;5.70;99.90
41720;DHT22;27405;53.316;-6.294;2022-12-29T17:56:59;5.70;99.90
41720;DHT22;27405;53.316;-6.294;2022-12-29T17:59:24;5.70;99.90
41720;DHT22;27405;53.316;-6.294;2022-12-29T18:01:50;5.70;99.90
41720;DHT22;27405;53.316;-6.294;2022-12-29T18:04:18;5.70;99.90
41720;DHT22;27405;53.316;-6.294;2022-12-29T18:06:44;5.70;99.90
41720;DHT22;27405;53.316;-6.294;2022-12-29T18:09:11;5.70;99.90
41720;DHT22;27405;53.316;-6.294;2022-12-29T18:11:41;5.70;99.90
41720;DHT22;27405;53.316;-6.294;2022-12-29T18:14:12;5.80;99.90
41720;DHT22;27405;53.316;-6.294;2022-12-29T18:16:38;5.80;99.90
41720;DHT22;27405;53.316;-6.294;2022-12-29T18:19:03;5.80;99.90
41720;DHT22;27405;53.316;-6.294;2022-12-29T18:21:29;5.80;99.90
41720;DHT22;27405;53.316;-6.294;2022-12-29T18:23:55;5.80;99.90
41720;DHT22;27405;53.316;-6.294;2022-12-29T18:26:24;5.80;99.90
41720;DHT22;27405;53.316;-6.294;2022-12-29T18:28:50;5.80;99.90